createdAt,value
2018-04-13T00:01:56.424Z,70.00
2018-04-13T00:04:23.889Z,67.80
2018-04-13T00:06:51.371Z,66.00
2018-04-13T00:09:19.616Z,63.30
2018-04-13T00:11:47.093Z,63.30
2018-04-13T00:14:15.313Z,64.90
2018-04-13T00:16:42.786Z,64.90
2018-04-13T00:19:10.250Z,63.10
2018-04-13T00:21:37.724Z,63.60
2018-04-13T00:24:05.181Z,62.70
2018-04-13T00:26:32.640Z,63.30
2018-04-13T00:29:00.112Z,62.10
2018-04-13T00:31:28.348Z,64.10
2018-04-13T00:33:55.812Z,64.00
2018-04-13T00:36:23.268Z,64.40
2018-04-13T00:38:50.743Z,64.40
2018-04-13T00:41:18.206Z,65.80
2018-04-13T00:43:45.664Z,66.90
2018-04-13T00:46:13.120Z,66.90
2018-04-13T00:48:40.576Z,66.90
2018-04-13T00:51:08.047Z,66.60
2018-04-13T00:53:36.319Z,65.30
2018-04-13T00:56:04.548Z,64.30
2018-04-13T00:58:32.013Z,64.30
2018-04-13T01:00:59.468Z,66.40
2018-04-13T01:03:26.932Z,66.10
2018-04-13T01:05:54.399Z,66.00
2018-04-13T01:08:21.851Z,65.80
2018-04-13T01:10:49.320Z,64.80
2018-04-13T01:13:16.778Z,64.40
2018-04-13T01:15:44.240Z,67.00
2018-04-13T01:18:11.704Z,66.50
2018-04-13T01:20:39.157Z,66.50
2018-04-13T01:23:06.648Z,66.60
2018-04-13T01:25:34.101Z,64.50
2018-04-13T01:28:01.564Z,65.60
2018-04-13T01:30:29.035Z,64.20
2018-04-13T01:32:56.486Z,63.90
2018-04-13T01:35:23.957Z,65.30
2018-04-13T01:37:51.419Z,63.50
2018-04-13T01:40:18.885Z,63.50
2018-04-13T01:42:46.352Z,63.20
2018-04-13T01:45:13.817Z,61.20
2018-04-13T01:47:41.286Z,63.40
2018-04-13T01:50:08.745Z,62.40
2018-04-13T01:52:36.213Z,62.10
2018-04-13T01:55:04.461Z,62.20
2018-04-13T01:57:31.911Z,62.20
2018-04-13T01:59:59.381Z,63.00
2018-04-13T02:02:26.867Z,63.30
2018-04-13T02:04:55.106Z,62.70
2018-04-13T02:07:22.579Z,62.70
2018-04-13T02:09:50.036Z,63.10
2018-04-13T02:12:17.535Z,64.30
2018-04-13T02:14:44.983Z,63.70
2018-04-13T02:17:12.495Z,62.40
2018-04-13T02:19:39.956Z,63.40
2018-04-13T02:22:07.424Z,64.30
2018-04-13T02:24:34.891Z,62.90
2018-04-13T02:27:02.344Z,62.90
2018-04-13T02:29:29.819Z,61.90
2018-04-13T02:31:58.050Z,62.00
2018-04-13T02:34:25.604Z,62.00
2018-04-13T02:36:52.997Z,62.40
2018-04-13T02:39:21.231Z,61.60
2018-04-13T02:41:48.685Z,61.50
2018-04-13T02:44:16.155Z,61.40
2018-04-13T02:46:43.612Z,60.50
2018-04-13T02:49:11.081Z,60.70
2018-04-13T02:51:38.576Z,60.20
2018-04-13T02:54:06.804Z,59.60
2018-04-13T02:56:34.273Z,59.60
2018-04-13T02:59:01.736Z,58.70
2018-04-13T03:01:29.213Z,58.40
2018-04-13T03:03:57.439Z,57.10
2018-04-13T03:06:24.914Z,57.10
2018-04-13T03:08:52.396Z,56.90
2018-04-13T03:11:20.620Z,57.30
2018-04-13T03:13:48.093Z,57.30
2018-04-13T03:16:15.549Z,56.90
2018-04-13T03:18:43.020Z,58.40
2018-04-13T03:21:10.476Z,58.30
2018-04-13T03:23:37.943Z,57.50
2018-04-13T03:26:05.436Z,57.70
2018-04-13T03:28:32.895Z,58.00
2018-04-13T03:31:00.362Z,57.40
2018-04-13T03:33:27.818Z,57.90
2018-04-13T03:35:55.288Z,57.80
2018-04-13T03:38:22.753Z,58.30
2018-04-13T03:40:50.221Z,58.60
2018-04-13T03:43:17.701Z,59.70
2018-04-13T03:45:45.189Z,59.10
2018-04-13T03:48:12.677Z,59.00
2018-04-13T03:50:40.922Z,59.00
2018-04-13T03:53:09.144Z,59.50
2018-04-13T03:55:36.617Z,59.50
2018-04-13T03:58:04.069Z,59.90
2018-04-13T04:00:31.560Z,60.50
2018-04-13T04:02:59.802Z,59.20
2018-04-13T04:05:27.262Z,59.20
2018-04-13T04:07:54.745Z,58.90
2018-04-13T04:10:22.206Z,59.30
2018-04-13T04:12:50.436Z,58.90
2018-04-13T04:15:17.911Z,58.90
2018-04-13T04:17:45.381Z,59.00
2018-04-13T04:20:24.645Z,58.30
2018-04-13T04:23:04.811Z,59.20
2018-04-13T04:25:56.066Z,59.10
2018-04-13T04:28:23.537Z,59.10
2018-04-13T04:30:50.996Z,59.00
2018-04-13T04:33:18.467Z,59.20
2018-04-13T04:35:46.699Z,60.10
2018-04-13T04:38:14.161Z,60.00
2018-04-13T04:40:41.611Z,60.20
2018-04-13T04:43:09.081Z,59.00
2018-04-13T04:45:36.553Z,58.30
2018-04-13T04:48:04.025Z,59.50
2018-04-13T04:50:31.496Z,60.60
2018-04-13T04:52:59.729Z,60.80
2018-04-13T04:55:27.192Z,60.80
2018-04-13T04:57:54.661Z,61.70
2018-04-13T05:00:22.130Z,61.90
2018-04-13T05:02:49.615Z,60.50
2018-04-13T05:05:17.086Z,60.80
2018-04-13T05:07:44.540Z,61.10
2018-04-13T05:10:12.028Z,60.50
2018-04-13T05:12:39.500Z,60.30
2018-04-13T05:15:06.965Z,61.00
2018-04-13T05:17:34.430Z,60.30
2018-04-13T05:20:02.669Z,61.40
2018-04-13T05:22:30.198Z,60.30
2018-04-13T05:24:57.616Z,61.50
2018-04-13T05:27:25.080Z,60.10
2018-04-13T05:29:52.554Z,61.20
2018-04-13T05:32:20.026Z,61.30
2018-04-13T05:34:47.484Z,61.00
2018-04-13T05:37:14.950Z,60.00
2018-04-13T05:39:42.421Z,60.70
2018-04-13T05:42:09.883Z,60.00
2018-04-13T05:44:37.339Z,60.00
2018-04-13T05:47:04.808Z,59.40
2018-04-13T05:49:32.268Z,59.40
2018-04-13T05:51:59.764Z,58.90
2018-04-13T05:54:28.000Z,58.80
2018-04-13T05:56:55.457Z,58.10
2018-04-13T05:59:22.923Z,57.90
2018-04-13T06:01:51.166Z,57.70
2018-04-13T06:04:18.630Z,57.70
2018-04-13T06:06:46.096Z,57.20
2018-04-13T06:09:13.552Z,56.30
2018-04-13T06:11:41.231Z,57.00
2018-04-13T06:14:08.708Z,56.50
2018-04-13T06:16:36.180Z,56.00
2018-04-13T06:19:04.408Z,55.80
2018-04-13T06:21:31.864Z,55.70
2018-04-13T06:23:59.323Z,56.60
2018-04-13T06:26:26.786Z,56.40
2018-04-13T06:28:54.256Z,57.10
2018-04-13T06:31:21.713Z,56.80
2018-04-13T06:33:49.185Z,56.90
2018-04-13T06:36:16.649Z,57.70
2018-04-13T06:38:44.876Z,57.90
2018-04-13T06:41:12.345Z,57.90
2018-04-13T06:43:39.818Z,57.50
2018-04-13T06:46:07.282Z,58.40
2018-04-13T06:48:34.743Z,57.70
2018-04-13T06:51:02.291Z,57.80
2018-04-13T06:53:29.825Z,57.10
2018-04-13T06:55:57.284Z,57.80
2018-04-13T06:58:24.756Z,58.10
2018-04-13T07:00:52.264Z,57.20
2018-04-13T07:03:19.738Z,57.10
2018-04-13T07:05:47.200Z,57.80
2018-04-13T07:08:14.668Z,59.10
2018-04-13T07:10:42.124Z,58.10
2018-04-13T07:13:09.595Z,58.00
2018-04-13T07:15:37.332Z,59.10
2018-04-13T07:18:04.793Z,58.10
2018-04-13T07:20:32.253Z,58.10
2018-04-13T07:22:59.709Z,58.60
2018-04-13T07:25:27.178Z,57.90
2018-04-13T07:27:54.637Z,58.20
2018-04-13T07:30:22.112Z,57.10
2018-04-13T07:32:49.601Z,57.00
2018-04-13T07:35:17.820Z,57.20
2018-04-13T07:37:45.279Z,57.20
2018-04-13T07:40:12.731Z,56.60
2018-04-13T07:42:40.212Z,57.60
2018-04-13T07:45:08.450Z,55.80
2018-04-13T07:47:35.909Z,55.70
2018-04-13T07:50:03.383Z,54.70
2018-04-13T07:52:30.847Z,54.10
2018-04-13T07:54:58.299Z,54.20
2018-04-13T07:57:25.760Z,55.10
2018-04-13T07:59:53.212Z,55.00
2018-04-13T08:02:20.680Z,55.60
2018-04-13T08:04:48.169Z,55.40
2018-04-13T08:07:15.624Z,56.20
2018-04-13T08:09:43.081Z,55.60
2018-04-13T08:12:11.861Z,56.30
2018-04-13T08:14:41.178Z,55.90
2018-04-13T08:17:08.706Z,55.50
2018-04-13T08:19:36.192Z,55.70
2018-04-13T08:22:04.433Z,54.60
2018-04-13T08:24:31.896Z,54.60
2018-04-13T08:26:59.354Z,54.10
2018-04-13T08:29:26.819Z,53.50
2018-04-13T08:31:54.277Z,49.60
2018-04-13T08:34:21.740Z,51.20
2018-04-13T08:36:49.205Z,49.30
2018-04-13T08:39:16.664Z,50.50
2018-04-13T08:41:44.125Z,51.00
2018-04-13T08:44:11.583Z,50.10
2018-04-13T08:46:39.832Z,49.60
2018-04-13T08:49:07.381Z,49.60
2018-04-13T08:51:34.756Z,50.80
2018-04-13T08:54:02.239Z,51.10
2018-04-13T08:56:29.713Z,49.70
2018-04-13T08:58:57.189Z,50.10
2018-04-13T09:01:24.685Z,48.00
2018-04-13T09:03:52.988Z,51.40
2018-04-13T09:06:21.213Z,46.20
2018-04-13T09:08:48.683Z,46.10
2018-04-13T09:11:16.141Z,43.70
2018-04-13T09:13:43.614Z,43.30
2018-04-13T09:16:11.069Z,43.90
2018-04-13T09:18:38.537Z,45.60
2018-04-13T09:21:07.604Z,47.30
2018-04-13T09:23:35.081Z,47.30
2018-04-13T09:26:02.573Z,45.90
2018-04-13T09:28:30.048Z,45.20
2018-04-13T09:30:57.509Z,45.30
2018-04-13T09:33:24.972Z,46.70
2018-04-13T09:35:52.457Z,47.30
2018-04-13T09:38:19.908Z,45.40
2018-04-13T09:40:47.393Z,46.10
2018-04-13T09:43:14.852Z,45.30
2018-04-13T09:45:42.325Z,47.50
2018-04-13T09:48:10.120Z,47.60
2018-04-13T09:50:37.593Z,46.60
2018-04-13T09:53:05.056Z,47.70
2018-04-13T09:55:32.589Z,49.00
2018-04-13T09:58:00.360Z,49.60
2018-04-13T10:00:30.685Z,49.30
2018-04-13T10:03:03.930Z,49.30
2018-04-13T10:05:34.073Z,49.10
2018-04-13T10:08:01.628Z,49.20
2018-04-13T10:10:29.073Z,48.00
2018-04-13T10:12:57.316Z,47.90
2018-04-13T10:15:24.798Z,47.90
2018-04-13T10:17:52.272Z,46.20
2018-04-13T10:20:20.502Z,48.60
2018-04-13T10:22:47.983Z,48.50
2018-04-13T10:25:16.227Z,44.40
2018-04-13T10:27:43.700Z,44.40
2018-04-13T10:30:11.175Z,44.80
2018-04-13T10:32:38.633Z,41.90
2018-04-13T10:35:06.100Z,42.60
2018-04-13T10:37:34.339Z,42.10
2018-04-13T10:40:01.848Z,42.30
2018-04-13T10:42:29.317Z,41.90
2018-04-13T10:44:56.790Z,41.40
2018-04-13T10:47:24.285Z,39.80
2018-04-13T10:49:51.753Z,43.00
2018-04-13T10:52:19.209Z,41.70
2018-04-13T10:54:46.672Z,41.60
2018-04-13T10:57:14.926Z,41.50
2018-04-13T10:59:42.365Z,41.50
2018-04-13T11:02:09.837Z,38.80
2018-04-13T11:04:37.311Z,37.70
2018-04-13T11:07:04.773Z,38.90
2018-04-13T11:09:32.240Z,36.70
2018-04-13T11:12:00.481Z,39.20
2018-04-13T11:14:27.959Z,39.20
2018-04-13T11:16:55.457Z,37.10
2018-04-13T11:19:23.661Z,40.90
2018-04-13T11:21:51.136Z,41.00
2018-04-13T11:24:18.600Z,38.20
2018-04-13T11:26:46.072Z,37.80
2018-04-13T11:29:13.536Z,39.90
2018-04-13T11:31:41.760Z,40.10
2018-04-13T11:34:09.252Z,40.10
2018-04-13T11:36:36.701Z,37.20
2018-04-13T11:39:04.179Z,40.40
2018-04-13T11:41:32.426Z,42.40
2018-04-13T11:43:59.892Z,42.50
2018-04-13T11:46:27.361Z,38.90
2018-04-13T11:48:54.865Z,39.80
2018-04-13T11:51:22.328Z,43.10
2018-04-13T11:53:49.807Z,44.80
2018-04-13T11:56:17.272Z,45.30
2018-04-13T11:58:44.730Z,46.70
2018-04-13T12:01:12.201Z,49.60
2018-04-13T12:03:39.675Z,47.70
2018-04-13T12:06:07.133Z,49.20
2018-04-13T12:08:35.379Z,48.90
2018-04-13T12:11:02.831Z,48.90
2018-04-13T12:13:30.300Z,49.20
2018-04-13T12:15:57.761Z,50.20
2018-04-13T12:18:25.225Z,50.10
2018-04-13T12:20:52.688Z,50.90
2018-04-13T12:23:20.924Z,49.20
2018-04-13T12:25:48.389Z,48.40
2018-04-13T12:28:15.850Z,50.60
2018-04-13T12:30:43.312Z,54.00
2018-04-13T12:33:10.773Z,53.10
2018-04-13T12:35:38.263Z,51.40
2018-04-13T12:38:06.498Z,50.80
2018-04-13T12:40:33.962Z,50.80
2018-04-13T12:43:01.436Z,48.70
2018-04-13T12:45:28.927Z,50.00
2018-04-13T12:47:56.384Z,49.00
2018-04-13T12:50:23.849Z,49.40
2018-04-13T12:52:51.307Z,48.80
2018-04-13T12:55:19.586Z,50.20
2018-04-13T12:57:47.045Z,50.20
2018-04-13T13:00:14.521Z,46.50
2018-04-13T13:02:41.985Z,45.60
2018-04-13T13:05:09.448Z,45.40
2018-04-13T13:07:36.920Z,46.00
2018-04-13T13:10:04.407Z,46.60
2018-04-13T13:12:32.666Z,44.80
2018-04-13T13:15:00.140Z,44.60
2018-04-13T13:17:28.365Z,42.00
2018-04-13T13:19:55.827Z,41.90
2018-04-13T13:22:23.302Z,41.00
2018-04-13T13:24:50.785Z,42.40
2018-04-13T13:27:19.013Z,41.20
2018-04-13T13:29:46.472Z,41.10
2018-04-13T13:32:13.940Z,41.20
2018-04-13T13:34:41.412Z,40.10
2018-04-13T13:37:08.898Z,39.90
2018-04-13T13:39:36.386Z,41.30
2018-04-13T13:42:03.873Z,42.00
2018-04-13T13:44:31.338Z,42.40
2018-04-13T13:46:58.806Z,41.80
2018-04-13T13:49:27.032Z,37.80
2018-04-13T13:51:54.501Z,37.70
2018-04-13T13:54:21.965Z,36.60
2018-04-13T13:56:49.434Z,38.00
2018-04-13T13:59:16.897Z,37.20
2018-04-13T14:01:44.352Z,38.00
2018-04-13T14:04:11.821Z,39.10
2018-04-13T14:06:39.296Z,38.80
2018-04-13T14:09:07.530Z,41.00
2018-04-13T14:11:35.006Z,41.00
2018-04-13T14:14:02.474Z,50.20
2018-04-13T14:16:30.704Z,56.30
2018-04-13T14:18:58.180Z,56.40
2018-04-13T14:21:25.637Z,57.80
2018-04-13T14:23:53.140Z,59.30
2018-04-13T14:26:20.625Z,59.70
2018-04-13T14:28:48.092Z,60.30
2018-04-13T14:31:15.553Z,60.40
2018-04-13T14:33:43.004Z,61.60
2018-04-13T14:36:10.468Z,59.50
2018-04-13T14:38:37.999Z,60.00
2018-04-13T14:41:06.193Z,59.90
2018-04-13T14:43:33.657Z,59.90
2018-04-13T14:46:01.130Z,61.30
2018-04-13T14:48:28.594Z,61.70
2018-04-13T14:50:56.120Z,62.30
2018-04-13T14:53:24.314Z,62.50
2018-04-13T14:55:51.833Z,62.40
2018-04-13T14:58:19.308Z,62.60
2018-04-13T15:00:46.992Z,62.80
2018-04-13T15:03:14.449Z,62.20
2018-04-13T15:05:41.914Z,62.90
2018-04-13T15:08:09.364Z,63.80
2018-04-13T15:10:36.828Z,62.40
2018-04-13T15:13:04.309Z,62.00
2018-04-13T15:15:32.537Z,62.50
2018-04-13T15:18:00.007Z,62.40
2018-04-13T15:20:27.472Z,60.70
2018-04-13T15:22:54.938Z,61.60
2018-04-13T15:25:22.396Z,60.70
2018-04-13T15:27:49.865Z,60.50
2018-04-13T15:30:17.329Z,61.60
2018-04-13T15:32:45.602Z,63.80
2018-04-13T15:35:13.129Z,62.90
2018-04-13T15:37:47.255Z,63.20
2018-04-13T15:40:15.488Z,63.20
2018-04-13T15:42:42.937Z,64.20
2018-04-13T15:45:10.405Z,63.40
2018-04-13T15:47:37.893Z,62.80
2018-04-13T15:50:05.349Z,62.10
2018-04-13T15:52:32.821Z,62.70
2018-04-13T15:55:00.291Z,62.80
2018-04-13T15:57:27.752Z,62.20
2018-04-13T15:59:57.374Z,63.50
2018-04-13T16:02:25.626Z,65.70
2018-04-13T16:04:53.090Z,64.80
2018-04-13T16:07:21.493Z,64.70
2018-04-13T16:09:48.977Z,64.10
2018-04-13T16:12:16.458Z,63.90
2018-04-13T16:14:43.917Z,63.70
2018-04-13T16:17:11.409Z,64.20
2018-04-13T16:19:38.885Z,63.90
2018-04-13T16:22:07.096Z,63.90
2018-04-13T16:24:34.560Z,64.40
2018-04-13T16:27:02.017Z,63.20
2018-04-13T16:29:29.485Z,63.30
2018-04-13T16:31:56.948Z,62.90
2018-04-13T16:34:24.562Z,63.00
2018-04-13T16:36:52.035Z,63.00
2018-04-13T16:39:19.492Z,61.80
2018-04-13T16:41:46.967Z,60.30
2018-04-13T16:44:14.443Z,61.80
2018-04-13T16:46:41.909Z,61.30
2018-04-13T16:49:10.888Z,60.40
2018-04-13T16:51:38.380Z,60.50
2018-04-13T16:54:05.845Z,61.20
2018-04-13T16:56:34.065Z,61.00
2018-04-13T16:59:01.537Z,61.50
2018-04-13T17:01:29.015Z,61.10
2018-04-13T17:03:57.252Z,60.10
2018-04-13T17:06:24.722Z,60.10
2018-04-13T17:08:52.207Z,59.20
2018-04-13T17:11:20.445Z,58.10
2018-04-13T17:13:47.919Z,58.10
2018-04-13T17:16:16.553Z,57.40
2018-04-13T17:18:46.917Z,57.20
2018-04-13T17:21:15.435Z,56.80
2018-04-13T17:23:45.746Z,56.60
2018-04-13T17:26:16.256Z,58.50
2018-04-13T17:28:46.464Z,58.60
2018-04-13T17:31:17.831Z,61.10
2018-04-13T17:33:47.185Z,63.50
2018-04-13T17:36:16.455Z,63.50
2018-04-13T17:38:47.663Z,66.30
2018-04-13T17:41:15.137Z,66.20
2018-04-13T17:43:44.076Z,68.40
2018-04-13T17:46:14.629Z,67.80
2018-04-13T17:48:42.101Z,69.20
2018-04-13T17:51:10.702Z,70.10
2018-04-13T17:53:38.165Z,70.90
2018-04-13T17:56:05.621Z,71.40
2018-04-13T17:58:33.088Z,73.20
2018-04-13T18:01:01.306Z,73.20
2018-04-13T18:03:29.541Z,73.60
2018-04-13T18:05:57.014Z,73.50
2018-04-13T18:08:24.477Z,73.10
2018-04-13T18:10:51.937Z,73.50
2018-04-13T18:13:19.407Z,74.20
2018-04-13T18:15:46.872Z,74.30
2018-04-13T18:18:14.325Z,74.50
2018-04-13T18:20:41.788Z,74.90
2018-04-13T18:23:09.245Z,75.10
2018-04-13T18:25:36.713Z,74.90
2018-04-13T18:28:04.186Z,75.40
2018-04-13T18:30:31.646Z,75.30
2018-04-13T18:32:59.112Z,75.30
2018-04-13T18:35:26.568Z,75.80
2018-04-13T18:37:54.032Z,76.50
2018-04-13T18:40:21.559Z,77.10
2018-04-13T18:42:49.017Z,77.10
2018-04-13T18:45:16.477Z,77.00
2018-04-13T18:47:43.935Z,76.70
2018-04-13T18:50:11.414Z,76.70
2018-04-13T18:52:38.895Z,76.60
2018-04-13T18:55:07.126Z,77.10
2018-04-13T18:57:34.601Z,77.00
2018-04-13T19:00:02.114Z,77.70
2018-04-13T19:02:29.596Z,77.70
2018-04-13T19:04:57.045Z,77.60
2018-04-13T19:07:24.518Z,77.80
2018-04-13T19:09:51.984Z,78.20
2018-04-13T19:12:19.444Z,78.50
2018-04-13T19:14:46.949Z,78.50
2018-04-13T19:17:15.136Z,79.70
2018-04-13T19:19:42.602Z,79.60
2018-04-13T19:22:10.069Z,79.60
2018-04-13T19:24:37.524Z,79.80
2018-04-13T19:27:05.001Z,79.60
2018-04-13T19:29:32.475Z,79.60
2018-04-13T19:31:59.935Z,79.50
2018-04-13T19:34:27.391Z,79.60
2018-04-13T19:36:55.640Z,79.80
2018-04-13T19:39:23.108Z,79.80
2018-04-13T19:41:50.572Z,80.20
2018-04-13T19:44:18.811Z,80.70
2018-04-13T19:46:46.276Z,80.50
2018-04-13T19:49:17.710Z,80.90
2018-04-13T19:51:50.221Z,80.30
2018-04-13T19:54:17.835Z,80.10
2018-04-13T19:56:45.818Z,80.50
2018-04-13T19:59:14.120Z,80.10
2018-04-13T20:01:42.502Z,80.00
2018-04-13T20:04:10.173Z,80.10
2018-04-13T20:06:37.760Z,80.20
2018-04-13T20:09:06.000Z,79.80
2018-04-13T20:11:33.458Z,79.60
2018-04-13T20:14:00.920Z,79.50
2018-04-13T20:16:28.502Z,79.90
2018-04-13T20:18:56.732Z,80.50
2018-04-13T20:21:24.194Z,80.40
2018-04-13T20:23:51.656Z,79.90
2018-04-13T20:26:19.117Z,80.00
2018-04-13T20:28:46.583Z,80.00
2018-04-13T20:31:14.045Z,79.80
2018-04-13T20:33:44.731Z,79.80
2018-04-13T20:36:12.196Z,80.10
2018-04-13T20:38:39.653Z,80.10
2018-04-13T20:41:07.120Z,79.90
2018-04-13T20:43:34.572Z,79.50
2018-04-13T20:46:02.046Z,80.00
2018-04-13T20:48:29.542Z,79.10
2018-04-13T20:51:03.785Z,80.10
2018-04-13T20:53:31.248Z,80.00
2018-04-13T20:55:58.703Z,79.10
2018-04-13T20:58:26.337Z,80.10
2018-04-13T21:00:53.834Z,80.40
2018-04-13T21:03:24.238Z,80.10
2018-04-13T21:05:51.705Z,80.40
2018-04-13T21:08:19.165Z,81.00
2018-04-13T21:10:46.628Z,80.70
2018-04-13T21:13:14.848Z,81.30
2018-04-13T21:15:42.321Z,81.20
2018-04-13T21:18:10.558Z,81.30
2018-04-13T21:20:38.039Z,81.30
2018-04-13T21:23:05.495Z,81.40
2018-04-13T21:25:34.244Z,81.30
2018-04-13T21:28:02.001Z,81.20
2018-04-13T21:30:31.995Z,81.70
2018-04-13T21:33:02.633Z,81.50
2018-04-13T21:35:31.853Z,81.50
2018-04-13T21:38:02.095Z,81.70
2018-04-13T21:40:30.459Z,82.80
2018-04-13T21:43:00.840Z,83.00
2018-04-13T21:45:29.073Z,83.30
2018-04-13T21:47:56.542Z,83.20
2018-04-13T21:50:30.944Z,83.20
2018-04-13T21:52:58.428Z,83.20
2018-04-13T21:55:25.895Z,82.80
2018-04-13T21:57:53.360Z,83.10
2018-04-13T22:00:22.578Z,83.30
2018-04-13T22:02:50.049Z,83.30
2018-04-13T22:05:17.502Z,83.20
2018-04-13T22:07:45.733Z,83.70
2018-04-13T22:10:13.982Z,84.00
2018-04-13T22:12:55.113Z,83.90
2018-04-13T22:15:26.618Z,83.80
2018-04-13T22:17:54.149Z,84.10
2018-04-13T22:20:21.622Z,84.10
2018-04-13T22:22:49.081Z,84.30
2018-04-13T22:25:16.551Z,84.40
2018-04-13T22:27:44.015Z,84.60
2018-04-13T22:30:11.492Z,84.50
2018-04-13T22:32:38.976Z,84.70
2018-04-13T22:35:06.432Z,85.10
2018-04-13T22:37:33.907Z,85.20
2018-04-13T22:40:01.349Z,86.70
2018-04-13T22:42:28.810Z,86.70
2018-04-13T22:44:56.280Z,86.80
2018-04-13T22:47:23.740Z,87.50
2018-04-13T22:49:51.206Z,87.50
2018-04-13T22:52:19.228Z,88.50
2018-04-13T22:54:47.455Z,88.70
2018-04-13T22:57:14.905Z,88.70
2018-04-13T22:59:42.372Z,89.00
2018-04-13T23:02:09.841Z,89.70
2018-04-13T23:04:37.296Z,90.00
2018-04-13T23:07:04.753Z,90.10
2018-04-13T23:09:32.220Z,90.20
2018-04-13T23:11:59.705Z,90.20
2018-04-13T23:14:27.933Z,90.30
2018-04-13T23:16:55.394Z,90.30
2018-04-13T23:19:22.857Z,90.40
2018-04-13T23:21:50.311Z,90.40
2018-04-13T23:24:17.777Z,90.40
2018-04-13T23:26:45.239Z,90.50
2018-04-13T23:29:12.719Z,90.50
2018-04-13T23:31:40.952Z,90.40
2018-04-13T23:34:08.409Z,90.40
2018-04-13T23:36:35.873Z,90.30
2018-04-13T23:39:03.328Z,90.30
2018-04-13T23:41:30.801Z,90.30
2018-04-13T23:43:58.260Z,90.40
2018-04-13T23:46:25.716Z,90.30
2018-04-13T23:48:53.180Z,90.40
2018-04-13T23:51:20.644Z,90.40
2018-04-13T23:53:48.104Z,90.50
2018-04-13T23:56:16.337Z,90.80
2018-04-13T23:58:43.788Z,90.60
